createdAt,value
2023-04-19T00:02:14.127Z,96549.31
2023-04-19T00:04:47.608Z,96554.34
2023-04-19T00:07:20.535Z,96559.06
2023-04-19T00:09:53.256Z,96553.06
2023-04-19T00:12:26.428Z,96556.50
2023-04-19T00:14:59.150Z,96552.38
2023-04-19T00:17:33.368Z,96542.44
2023-04-19T00:20:06.580Z,96543.69
2023-04-19T00:22:39.260Z,96545.25
2023-04-19T00:25:11.918Z,96549.94
2023-04-19T00:27:44.679Z,96545.03
2023-04-19T00:30:17.427Z,96548.50
2023-04-19T00:32:51.623Z,96551.63
2023-04-19T00:35:24.375Z,96550.53
2023-04-19T00:37:57.054Z,96540.59
2023-04-19T00:40:29.691Z,96545.25
2023-04-19T00:43:02.872Z,96545.72
2023-04-19T00:45:36.465Z,96542.38
2023-04-19T00:48:10.611Z,96541.25
2023-04-19T00:50:44.578Z,96529.06
2023-04-19T00:53:17.684Z,96531.41
2023-04-19T00:55:51.644Z,96530.75
2023-04-19T00:58:24.634Z,96521.25
2023-04-19T01:00:57.533Z,96524.38
2023-04-19T01:03:31.783Z,96522.16
2023-04-19T01:06:04.698Z,96521.81
2023-04-19T01:08:37.498Z,96520.38
2023-04-19T01:11:10.315Z,96521.59
2023-04-19T01:13:43.092Z,96523.59
2023-04-19T01:16:15.913Z,96521.38
2023-04-19T01:18:50.295Z,96516.78
2023-04-19T01:21:23.586Z,96509.16
2023-04-19T01:23:57.768Z,96514.66
2023-04-19T01:26:30.466Z,96514.66
2023-04-19T01:29:03.494Z,96514.66
2023-04-19T01:31:36.374Z,96512.44
2023-04-19T01:34:09.103Z,96513.22
2023-04-19T01:36:42.065Z,96511.31
2023-04-19T01:39:16.257Z,96510.16
2023-04-19T01:41:48.928Z,96504.03
2023-04-19T01:44:21.609Z,96505.59
2023-04-19T01:46:55.123Z,96499.09
2023-04-19T01:49:27.854Z,96503.34
2023-04-19T01:52:00.850Z,96498.00
2023-04-19T01:54:34.910Z,96500.34
2023-04-19T01:57:07.524Z,96496.09
2023-04-19T01:59:40.206Z,96500.34
2023-04-19T02:02:12.934Z,96498.44
2023-04-19T02:04:45.995Z,96497.31
2023-04-19T02:07:18.684Z,96491.63
2023-04-19T02:09:52.899Z,96499.66
2023-04-19T02:12:25.568Z,96501.25
2023-04-19T02:14:58.265Z,96492.03
2023-04-19T02:17:32.691Z,96494.41
2023-04-19T02:20:05.947Z,96488.25
2023-04-19T02:22:38.688Z,96485.22
2023-04-19T02:25:12.794Z,96487.56
2023-04-19T02:27:45.537Z,96489.47
2023-04-19T02:30:18.246Z,96491.84
2023-04-19T02:32:51.081Z,96491.84
2023-04-19T02:35:23.876Z,96491.50
2023-04-19T02:37:56.593Z,96492.28
2023-04-19T02:40:30.651Z,96495.75
2023-04-19T02:43:05.167Z,96489.22
2023-04-19T02:45:38.276Z,96491.13
2023-04-19T02:48:10.927Z,96480.84
2023-04-19T02:50:43.633Z,96488.13
2023-04-19T02:53:16.248Z,96488.13
2023-04-19T02:55:50.296Z,96481.97
2023-04-19T02:58:23.001Z,96482.75
2023-04-19T03:00:55.738Z,96484.66
2023-04-19T03:03:28.818Z,96478.94
2023-04-19T03:06:01.662Z,96485.09
2023-04-19T03:08:34.668Z,96487.00
2023-04-19T03:11:08.762Z,96480.06
2023-04-19T03:13:41.575Z,96483.09
2023-04-19T03:16:14.317Z,96479.28
2023-04-19T03:18:49.228Z,96481.97
2023-04-19T03:21:22.531Z,96478.50
2023-04-19T03:23:55.196Z,96480.41
2023-04-19T03:26:29.445Z,96477.72
2023-04-19T03:29:02.692Z,96467.75
2023-04-19T03:31:35.500Z,96463.53
2023-04-19T03:34:08.180Z,96460.06
2023-04-19T03:36:41.222Z,96466.97
2023-04-19T03:39:13.988Z,96453.13
2023-04-19T03:41:48.398Z,96459.28
2023-04-19T03:44:21.127Z,96456.25
2023-04-19T03:46:53.924Z,96458.50
2023-04-19T03:49:26.586Z,96454.25
2023-04-19T03:51:59.253Z,96450.44
2023-04-19T03:54:31.949Z,96452.81
2023-04-19T03:57:06.219Z,96453.91
2023-04-19T03:59:38.905Z,96460.50
2023-04-19T04:02:11.643Z,96457.81
2023-04-19T04:04:44.567Z,96456.69
2023-04-19T04:07:17.513Z,96456.69
2023-04-19T04:09:50.347Z,96454.00
2023-04-19T04:12:24.694Z,96463.63
2023-04-19T04:14:57.324Z,96459.81
2023-04-19T04:17:30.065Z,96453.66
2023-04-19T04:20:03.166Z,96463.28
2023-04-19T04:22:35.933Z,96463.28
2023-04-19T04:25:09.036Z,96455.56
2023-04-19T04:27:44.238Z,96458.25
2023-04-19T04:30:16.892Z,96461.72
2023-04-19T04:32:51.403Z,96458.25
2023-04-19T04:35:24.181Z,96459.03
2023-04-19T04:37:56.861Z,96467.09
2023-04-19T04:40:29.546Z,96463.19
2023-04-19T04:43:05.255Z,96470.13
2023-04-19T04:45:38.399Z,96470.13
2023-04-19T04:48:11.139Z,96469.31
2023-04-19T04:50:44.229Z,96467.75
2023-04-19T04:53:16.916Z,96468.53
2023-04-19T04:55:49.576Z,96470.44
2023-04-19T04:58:23.860Z,96465.06
2023-04-19T05:00:56.614Z,96465.53
2023-04-19T05:03:29.751Z,96467.44
2023-04-19T05:06:02.789Z,96464.75
2023-04-19T05:08:35.578Z,96468.66
2023-04-19T05:11:08.549Z,96469.91
2023-04-19T05:13:42.686Z,96475.59
2023-04-19T05:16:15.405Z,96473.00
2023-04-19T05:18:48.072Z,96471.53
2023-04-19T05:21:20.872Z,96471.22
2023-04-19T05:23:54.718Z,96467.75
2023-04-19T05:26:27.385Z,96470.88
2023-04-19T05:29:01.591Z,96468.53
2023-04-19T05:31:34.263Z,96469.31
2023-04-19T05:34:07.104Z,96477.03
2023-04-19T05:36:40.250Z,96473.56
2023-04-19T05:39:13.912Z,96476.56
2023-04-19T05:41:46.589Z,96474.69
2023-04-19T05:44:20.888Z,96472.78
2023-04-19T05:46:53.505Z,96466.28
2023-04-19T05:49:26.215Z,96477.03
2023-04-19T05:51:58.904Z,96479.00
2023-04-19T05:54:35.882Z,96476.78
2023-04-19T05:57:08.557Z,96472.97
2023-04-19T05:59:42.758Z,96484.63
2023-04-19T06:02:15.889Z,96482.34
2023-04-19T06:04:48.944Z,96480.88
2023-04-19T06:07:30.747Z,96479.44
2023-04-19T06:10:04.618Z,96478.72
2023-04-19T06:12:37.425Z,96480.75
2023-04-19T06:15:12.539Z,96479.28
2023-04-19T06:17:45.316Z,96479.75
2023-04-19T06:20:18.453Z,96475.56
2023-04-19T06:22:51.919Z,96480.31
2023-04-19T06:25:25.553Z,96481.16
2023-04-19T06:27:58.537Z,96487.44
2023-04-19T06:30:32.677Z,96484.84
2023-04-19T06:33:05.293Z,96483.03
2023-04-19T06:35:38.408Z,96483.13
2023-04-19T06:38:11.106Z,96486.34
2023-04-19T06:40:43.863Z,96488.69
2023-04-19T06:43:16.805Z,96489.56
2023-04-19T06:45:51.275Z,96483.94
2023-04-19T06:48:23.883Z,96492.44
2023-04-19T06:50:56.558Z,96494.09
2023-04-19T06:53:29.500Z,96485.69
2023-04-19T06:56:04.600Z,96494.28
2023-04-19T06:58:37.341Z,96492.03
2023-04-19T07:01:12.077Z,96499.03
2023-04-19T07:03:47.098Z,96497.91
2023-04-19T07:06:19.988Z,96491.09
2023-04-19T07:08:52.615Z,96499.16
2023-04-19T07:11:25.406Z,96498.47
2023-04-19T07:13:58.229Z,96501.94
2023-04-19T07:16:32.369Z,96497.34
2023-04-19T07:19:05.002Z,96494.28
2023-04-19T07:21:38.868Z,96497.41
2023-04-19T07:24:11.547Z,96498.97
2023-04-19T07:26:44.521Z,96500.56
2023-04-19T07:29:17.212Z,96489.78
2023-04-19T07:31:51.489Z,96498.66
2023-04-19T07:34:24.240Z,96497.84
2023-04-19T07:36:56.865Z,96506.72
2023-04-19T07:39:30.921Z,96496.75
2023-04-19T07:42:03.630Z,96497.53
2023-04-19T07:44:36.679Z,96492.13
2023-04-19T07:47:11.016Z,96495.63
2023-04-19T07:49:44.487Z,96500.22
2023-04-19T07:52:18.493Z,96496.41
2023-04-19T07:54:51.240Z,96497.19
2023-04-19T07:57:23.913Z,96495.94
2023-04-19T07:59:59.154Z,96491.69
2023-04-19T08:02:33.696Z,96489.78
2023-04-19T08:05:06.995Z,96492.47
2023-04-19T08:07:39.947Z,96491.34
2023-04-19T08:10:13.343Z,96487.09
2023-04-19T08:12:57.360Z,96488.31
2023-04-19T08:16:20.482Z,96488.75
2023-04-19T08:18:31.921Z,96488.06
2023-04-19T08:21:05.005Z,96488.84
2023-04-19T08:23:47.304Z,96492.31
2023-04-19T08:26:21.140Z,96488.16
2023-04-19T08:28:54.169Z,96487.38
2023-04-19T08:31:26.929Z,96492.38
2023-04-19T08:34:02.840Z,96483.19
2023-04-19T08:36:40.946Z,96487.44
2023-04-19T08:39:29.114Z,96486.31
2023-04-19T08:42:11.124Z,96487.53
2023-04-19T08:45:23.416Z,96480.69
2023-04-19T08:48:00.573Z,96492.31
2023-04-19T08:50:45.655Z,96487.88
2023-04-19T08:53:29.750Z,96481.47
2023-04-19T08:58:54.828Z,96476.00
2023-04-19T09:01:36.039Z,96471.56
2023-04-19T09:04:34.782Z,96474.84
2023-04-19T09:07:03.395Z,96474.22
2023-04-19T09:09:45.628Z,96472.47
2023-04-19T09:12:28.586Z,96470.72
2023-04-19T09:15:02.491Z,96463.91
2023-04-19T09:17:35.667Z,96468.75
2023-04-19T09:20:08.814Z,96464.19
2023-04-19T09:22:43.047Z,96460.88
2023-04-19T09:25:41.952Z,96466.75
2023-04-19T09:28:18.348Z,96455.69
2023-04-19T09:33:34.363Z,96467.81
2023-04-19T09:36:07.691Z,96453.97
2023-04-19T09:38:51.426Z,96454.75
2023-04-19T09:41:24.040Z,96449.03
2023-04-19T09:44:47.374Z,96452.56
2023-04-19T09:47:03.045Z,96448.03
2023-04-19T09:49:48.046Z,96444.69
2023-04-19T09:52:21.928Z,96438.25
2023-04-19T09:54:56.931Z,96446.09
2023-04-19T09:57:29.749Z,96443.53
2023-04-19T10:00:06.631Z,96439.47
2023-04-19T10:02:39.682Z,96434.97
2023-04-19T10:05:20.681Z,96428.47
2023-04-19T10:07:59.399Z,96430.13
2023-04-19T10:10:41.961Z,96430.94
2023-04-19T10:13:21.386Z,96429.50
2023-04-19T10:16:01.857Z,96437.34
2023-04-19T10:18:37.776Z,96423.56
2023-04-19T10:21:11.889Z,96423.28
2023-04-19T10:23:44.532Z,96417.22
2023-04-19T10:26:18.684Z,96420.03
2023-04-19T10:28:51.537Z,96427.13
2023-04-19T10:31:26.291Z,96417.91
2023-04-19T10:34:00.002Z,96422.25
2023-04-19T10:36:33.816Z,96417.59
2023-04-19T10:39:26.525Z,96415.69
2023-04-19T10:42:00.945Z,96416.41
2023-04-19T10:44:33.627Z,96406.75
2023-04-19T10:47:07.921Z,96401.38
2023-04-19T10:49:45.868Z,96393.97
2023-04-19T10:52:29.594Z,96389.78
2023-04-19T10:55:05.145Z,96389.06
2023-04-19T10:57:52.693Z,96391.00
2023-04-19T11:00:31.477Z,96384.13
2023-04-19T11:03:31.695Z,96379.16
2023-04-19T11:06:27.109Z,96376.88
2023-04-19T11:09:00.165Z,96373.09
2023-04-19T11:11:34.532Z,96370.41
2023-04-19T11:14:09.396Z,96376.25
2023-04-19T11:16:46.039Z,96376.31
2023-04-19T11:19:19.497Z,96369.03
2023-04-19T11:21:52.734Z,96363.72
2023-04-19T11:24:25.420Z,96363.00
2023-04-19T11:26:58.786Z,96349.97
2023-04-19T11:29:31.774Z,96347.41
2023-04-19T11:32:07.614Z,96349.81
2023-04-19T11:34:40.574Z,96351.91
2023-04-19T11:37:13.298Z,96342.72
2023-04-19T11:39:46.611Z,96344.38
2023-04-19T11:42:20.543Z,96339.38
2023-04-19T11:44:53.539Z,96330.56
2023-04-19T11:47:27.733Z,96333.69
2023-04-19T11:50:23.984Z,96323.28
2023-04-19T11:52:56.744Z,96330.25
2023-04-19T11:55:34.020Z,96322.09
2023-04-19T11:58:09.785Z,96319.38
2023-04-19T12:00:47.770Z,96319.34
2023-04-19T12:03:26.360Z,96319.75
2023-04-19T12:06:00.232Z,96315.44
2023-04-19T12:08:33.856Z,96313.13
2023-04-19T12:11:07.267Z,96320.84
2023-04-19T12:13:40.846Z,96318.09
2023-04-19T12:16:13.682Z,96315.38
2023-04-19T12:18:49.969Z,96309.56
2023-04-19T12:21:27.310Z,96319.97
2023-04-19T12:24:00.812Z,96315.31
2023-04-19T12:26:33.680Z,96315.31
2023-04-19T12:29:07.181Z,96315.31
2023-04-19T12:31:39.939Z,96316.47
2023-04-19T12:34:13.943Z,96319.56
2023-04-19T12:36:46.607Z,96309.47
2023-04-19T12:39:19.276Z,96309.84
2023-04-19T12:41:51.927Z,96304.41
2023-04-19T12:44:25.085Z,96303.25
2023-04-19T12:46:58.142Z,96307.50
2023-04-19T12:49:32.231Z,96301.69
2023-04-19T12:52:05.219Z,96297.84
2023-04-19T12:54:38.075Z,96298.25
2023-04-19T12:57:10.842Z,96296.28
2023-04-19T12:59:43.509Z,96289.38
2023-04-19T13:02:16.322Z,96298.63
2023-04-19T13:04:51.247Z,96285.09
2023-04-19T13:07:24.053Z,96275.44
2023-04-19T13:09:57.129Z,96274.28
2023-04-19T13:12:30.328Z,96274.59
2023-04-19T13:15:04.406Z,96269.56
2023-04-19T13:17:38.144Z,96272.28
2023-04-19T13:20:12.661Z,96273.81
2023-04-19T13:22:45.366Z,96263.78
2023-04-19T13:25:18.065Z,96256.47
2023-04-19T13:27:51.748Z,96266.53
2023-04-19T13:30:24.496Z,96249.91
2023-04-19T13:32:57.300Z,96249.16
2023-04-19T13:35:31.873Z,96246.47
2023-04-19T13:38:04.613Z,96248.81
2023-04-19T13:40:37.327Z,96245.34
2023-04-19T13:43:10.000Z,96240.72
2023-04-19T13:45:42.675Z,96243.09
2023-04-19T13:48:15.451Z,96234.22
2023-04-19T13:50:51.154Z,96225.34
2023-04-19T13:53:24.050Z,96218.44
2023-04-19T13:55:56.982Z,96219.22
2023-04-19T13:58:29.749Z,96209.97
2023-04-19T14:01:02.559Z,96208.81
2023-04-19T14:03:35.361Z,96203.84
2023-04-19T14:06:09.618Z,96205.03
2023-04-19T14:08:42.312Z,96197.31
2023-04-19T14:11:15.041Z,96196.56
2023-04-19T14:13:48.356Z,96194.28
2023-04-19T14:16:24.369Z,96195.91
2023-04-19T14:18:57.283Z,96189.34
2023-04-19T14:21:31.554Z,96192.50
2023-04-19T14:24:04.420Z,96182.06
2023-04-19T14:26:37.265Z,96180.13
2023-04-19T14:29:09.978Z,96175.09
2023-04-19T14:31:42.738Z,96180.94
2023-04-19T14:34:15.566Z,96184.81
2023-04-19T14:36:51.511Z,96163.88
2023-04-19T14:39:24.760Z,96170.50
2023-04-19T14:41:57.905Z,96169.72
2023-04-19T14:44:30.604Z,96165.47
2023-04-19T14:47:03.281Z,96164.31
2023-04-19T14:49:36.175Z,96164.31
2023-04-19T14:52:10.193Z,96163.16
2023-04-19T14:54:43.393Z,96156.56
2023-04-19T14:57:16.291Z,96157.72
2023-04-19T14:59:48.941Z,96154.22
2023-04-19T15:02:21.967Z,96146.88
2023-04-19T15:04:55.291Z,96151.50
2023-04-19T15:07:29.566Z,96149.59
2023-04-19T15:10:02.326Z,96141.06
2023-04-19T15:12:35.076Z,96147.25
2023-04-19T15:15:08.675Z,96139.50
2023-04-19T15:17:41.398Z,96136.38
2023-04-19T15:20:14.180Z,96137.56
2023-04-19T15:22:48.245Z,96137.97
2023-04-19T15:25:21.161Z,96138.34
2023-04-19T15:27:54.052Z,96133.31
2023-04-19T15:30:26.803Z,96128.25
2023-04-19T15:32:59.498Z,96128.28
2023-04-19T15:35:32.393Z,96122.88
2023-04-19T15:38:06.416Z,96127.47
2023-04-19T15:40:40.319Z,96132.91
2023-04-19T15:43:12.987Z,96124.75
2023-04-19T15:45:45.608Z,96127.47
2023-04-19T15:48:18.354Z,96135.22
2023-04-19T15:50:51.058Z,96132.47
2023-04-19T15:53:25.164Z,96129.78
2023-04-19T15:55:58.125Z,96131.69
2023-04-19T15:58:30.838Z,96135.56
2023-04-19T16:01:03.718Z,96133.22
2023-04-19T16:03:36.548Z,96131.25
2023-04-19T16:06:09.313Z,96130.09
2023-04-19T16:08:43.434Z,96137.41
2023-04-19T16:11:16.542Z,96130.81
2023-04-19T16:13:49.515Z,96124.63
2023-04-19T16:16:22.280Z,96134.66
2023-04-19T16:18:54.928Z,96122.66
2023-04-19T16:21:28.914Z,96129.22
2023-04-19T16:24:02.977Z,96134.19
2023-04-19T16:26:35.663Z,96132.22
2023-04-19T16:29:08.348Z,96133.69
2023-04-19T16:31:41.120Z,96135.16
2023-04-19T16:34:13.781Z,96133.16
2023-04-19T16:36:46.603Z,96133.09
2023-04-19T16:39:20.676Z,96126.06
2023-04-19T16:41:53.411Z,96122.47
2023-04-19T16:44:26.021Z,96116.25
2023-04-19T16:46:58.696Z,96117.72
2023-04-19T16:49:31.400Z,96117.66
2023-04-19T16:52:04.178Z,96111.44
2023-04-19T16:54:38.559Z,96110.59
2023-04-19T16:57:11.656Z,96103.59
2023-04-19T16:59:44.343Z,96108.13
2023-04-19T17:02:17.290Z,96105.38
2023-04-19T17:04:50.318Z,96103.41
2023-04-19T17:07:23.131Z,96096.78
2023-04-19T17:09:58.933Z,96095.59
2023-04-19T17:12:31.640Z,96100.56
2023-04-19T17:15:05.131Z,96104.00
2023-04-19T17:17:37.800Z,96116.28
2023-04-19T17:20:10.908Z,96120.06
2023-04-19T17:22:43.545Z,96132.28
2023-04-19T17:25:17.617Z,96134.50
2023-04-19T17:27:50.851Z,96123.97
2023-04-19T17:30:23.956Z,96131.13
2023-04-19T17:32:56.637Z,96139.44
2023-04-19T17:35:29.455Z,96141.50
2023-04-19T17:38:02.474Z,96137.13
2023-04-19T17:40:36.754Z,96143.41
2023-04-19T17:43:11.262Z,96140.16
2023-04-19T17:45:43.955Z,96147.63
2023-04-19T17:48:16.572Z,96135.50
2023-04-19T17:50:49.238Z,96137.25
2023-04-19T17:53:22.130Z,96146.63
2023-04-19T17:55:56.560Z,96141.03
2023-04-19T17:58:29.409Z,96143.88
2023-04-19T18:01:03.412Z,96154.81
2023-04-19T18:03:36.548Z,96157.63
2023-04-19T18:06:09.831Z,96159.69
2023-04-19T18:08:42.505Z,96149.06
2023-04-19T18:11:18.330Z,96162.22
2023-04-19T18:13:51.090Z,96160.78
2023-04-19T18:16:23.880Z,96162.38
2023-04-19T18:18:56.537Z,96168.53
2023-04-19T18:21:29.418Z,96177.38
2023-04-19T18:24:04.985Z,96169.66
2023-04-19T18:26:40.215Z,96189.25
2023-04-19T18:29:16.231Z,96194.50
2023-04-19T18:31:49.330Z,96195.97
2023-04-19T18:34:22.126Z,96197.78
2023-04-19T18:37:00.173Z,96201.22
2023-04-19T18:39:33.388Z,96200.69
2023-04-19T18:42:08.086Z,96209.44
2023-04-19T18:44:51.958Z,96212.03
2023-04-19T18:47:26.906Z,96215.75
2023-04-19T18:50:05.264Z,96221.41
2023-04-19T18:52:39.122Z,96230.44
2023-04-19T18:55:14.186Z,96228.88
2023-04-19T18:57:48.452Z,96227.97
2023-04-19T19:00:21.908Z,96228.28
2023-04-19T19:02:55.427Z,96239.72
2023-04-19T19:05:28.991Z,96253.81
2023-04-19T19:08:02.565Z,96261.13
2023-04-19T19:13:14.041Z,96262.84
2023-04-19T19:15:49.757Z,96268.09
2023-04-19T19:18:22.683Z,96263.94
2023-04-19T19:20:59.761Z,96288.72
2023-04-19T19:23:36.232Z,96281.38
2023-04-19T19:26:12.537Z,96282.06
2023-04-19T19:28:47.585Z,96264.09
2023-04-19T19:31:20.537Z,96270.13
2023-04-19T19:34:13.788Z,96267.81
2023-04-19T19:36:49.414Z,96277.28
2023-04-19T19:39:22.480Z,96272.31
2023-04-19T19:44:32.682Z,96265.44
2023-04-19T19:47:10.276Z,96259.47
2023-04-19T19:52:21.086Z,96263.28
2023-04-19T19:54:54.531Z,96263.91
2023-04-19T20:02:54.276Z,96267.84
2023-04-19T20:05:29.649Z,96254.34
2023-04-19T20:08:07.391Z,96267.69
2023-04-19T20:10:42.298Z,96265.66
2023-04-19T20:13:15.072Z,96251.88
2023-04-19T20:15:49.379Z,96261.59
2023-04-19T20:18:22.563Z,96255.00
2023-04-19T20:20:55.964Z,96255.19
2023-04-19T20:23:28.885Z,96253.91
2023-04-19T20:26:02.052Z,96260.69
2023-04-19T20:28:35.209Z,96257.53
2023-04-19T20:31:10.690Z,96254.88
2023-04-19T20:33:43.730Z,96253.78
2023-04-19T20:36:17.252Z,96256.44
2023-04-19T20:38:50.487Z,96245.00
2023-04-19T20:41:23.527Z,96249.84
2023-04-19T20:43:57.489Z,96250.94
2023-04-19T20:46:32.491Z,96248.91
2023-04-19T20:49:05.228Z,96257.25
2023-04-19T20:51:38.690Z,96252.53
2023-04-19T20:54:13.656Z,96253.50
2023-04-19T20:56:46.502Z,96259.13
2023-04-19T20:59:19.628Z,96251.75
2023-04-19T21:01:54.346Z,96257.38
2023-04-19T21:04:28.031Z,96265.25
2023-04-19T21:07:01.306Z,96261.78
2023-04-19T21:09:34.206Z,96257.88
2023-04-19T21:12:07.037Z,96263.03
2023-04-19T21:14:41.658Z,96261.00
2023-04-19T21:17:15.898Z,96258.97
2023-04-19T21:19:48.721Z,96251.13
2023-04-19T21:22:21.508Z,96257.88
2023-04-19T21:24:54.408Z,96256.47
2023-04-19T21:27:27.844Z,96253.94
2023-04-19T21:30:00.781Z,96246.13
2023-04-19T21:32:35.156Z,96245.94
2023-04-19T21:35:08.753Z,96249.25
2023-04-19T21:37:41.627Z,96235.75
2023-04-19T21:40:14.619Z,96238.72
2023-04-19T21:42:47.575Z,96231.06
2023-04-19T21:45:20.392Z,96235.59
2023-04-19T21:47:54.647Z,96221.03
2023-04-19T21:50:27.737Z,96219.16
2023-04-19T21:53:00.894Z,96222.13
2023-04-19T21:55:34.691Z,96220.56
2023-04-19T21:58:07.918Z,96221.66
2023-04-19T22:00:41.120Z,96222.44
2023-04-19T22:03:16.028Z,96207.88
2023-04-19T22:05:49.373Z,96206.31
2023-04-19T22:08:22.466Z,96201.63
2023-04-19T22:10:56.384Z,96202.09
2023-04-19T22:13:30.326Z,96199.44
2023-04-19T22:16:03.724Z,96194.13
2023-04-19T22:18:41.203Z,96199.09
2023-04-19T22:21:15.658Z,96192.22
2023-04-19T22:23:48.441Z,96186.13
2023-04-19T22:26:22.525Z,96186.88
2023-04-19T22:28:55.360Z,96179.38
2023-04-19T22:31:28.143Z,96186.88
2023-04-19T22:34:03.630Z,96178.16
2023-04-19T22:36:36.507Z,96177.38
2023-04-19T22:39:09.383Z,96173.59
2023-04-19T22:41:42.343Z,96168.25
2023-04-19T22:44:15.808Z,96154.94
2023-04-19T22:46:48.805Z,96155.44
2023-04-19T22:49:24.426Z,96137.59
2023-04-19T22:51:58.911Z,96139.16
2023-04-19T22:54:31.750Z,96128.50
2023-04-19T22:57:04.755Z,96132.25
2023-04-19T22:59:37.597Z,96137.59
2023-04-19T23:02:10.900Z,96129.91
2023-04-19T23:04:45.277Z,96125.38
2023-04-19T23:07:20.425Z,96120.53
2023-04-19T23:09:55.114Z,96118.94
2023-04-19T23:12:31.436Z,96113.31
2023-04-19T23:15:04.766Z,96119.91
2023-04-19T23:17:39.423Z,96118.81
2023-04-19T23:20:14.006Z,96119.59
2023-04-19T23:22:46.852Z,96115.03
2023-04-19T23:25:19.959Z,96110.50
2023-04-19T23:27:53.131Z,96107.81
2023-04-19T23:30:26.309Z,96109.69
2023-04-19T23:32:59.639Z,96106.28
2023-04-19T23:35:34.176Z,96100.63
2023-04-19T23:38:07.276Z,96107.81
2023-04-19T23:40:40.146Z,96104.38
2023-04-19T23:43:13.264Z,96092.97
2023-04-19T23:45:46.384Z,96088.28
2023-04-19T23:48:19.238Z,96080.28
2023-04-19T23:50:53.765Z,96077.16
2023-04-19T23:53:26.610Z,96080.59
2023-04-19T23:55:59.394Z,96080.13
2023-04-19T23:58:32.224Z,96075.13
